createdAt,value
2022-11-23T00:00:19.126Z,92
2022-11-23T00:01:19.885Z,92
2022-11-23T00:04:20.474Z,92
2022-11-23T00:05:20.434Z,92
2022-11-23T00:06:21.007Z,92
2022-11-23T00:07:20.624Z,92
2022-11-23T00:08:21.049Z,92
2022-11-23T00:10:20.694Z,92
2022-11-23T00:11:20.184Z,92
2022-11-23T00:12:20.761Z,92
2022-11-23T00:13:20.614Z,92
2022-11-23T00:15:20.760Z,92
2022-11-23T00:16:20.901Z,92
2022-11-23T00:17:20.339Z,92
2022-11-23T00:18:20.675Z,92
2022-11-23T00:20:20.973Z,92
2022-11-23T00:21:19.948Z,92
2022-11-23T00:22:19.364Z,92
2022-11-23T00:23:20.147Z,92
2022-11-23T00:24:19.175Z,92
2022-11-23T00:25:21.263Z,92
2022-11-23T00:26:20.920Z,92
2022-11-23T00:27:20.669Z,92
2022-11-23T00:28:21.113Z,92
2022-11-23T00:29:20.046Z,92
2022-11-23T00:30:20.759Z,92
2022-11-23T00:31:20.915Z,92
2022-11-23T00:32:20.853Z,92
2022-11-23T00:33:20.931Z,92
2022-11-23T00:34:20.278Z,92
2022-11-23T00:35:20.717Z,92
2022-11-23T00:36:20.071Z,92
2022-11-23T00:37:20.387Z,92
2022-11-23T00:38:20.809Z,92
2022-11-23T00:39:20.761Z,92
2022-11-23T00:40:20.239Z,92
2022-11-23T00:41:20.624Z,92
2022-11-23T00:42:20.965Z,92
2022-11-23T00:43:20.606Z,92
2022-11-23T00:44:20.841Z,92
2022-11-23T00:45:20.175Z,92
2022-11-23T00:46:19.253Z,92
2022-11-23T00:47:20.515Z,92
2022-11-23T00:48:20.885Z,92
2022-11-23T00:49:20.765Z,92
2022-11-23T00:50:20.628Z,92
2022-11-23T00:51:20.514Z,92
2022-11-23T00:52:20.749Z,92
2022-11-23T00:53:20.513Z,92
2022-11-23T00:54:19.968Z,92
2022-11-23T00:55:20.264Z,92
2022-11-23T00:56:20.630Z,92
2022-11-23T00:57:20.600Z,92
2022-11-23T00:58:20.654Z,92
2022-11-23T00:59:20.115Z,92
2022-11-23T01:02:20.683Z,92
2022-11-23T01:03:20.697Z,92
2022-11-23T01:05:20.421Z,92
2022-11-23T01:06:20.825Z,92
2022-11-23T01:07:20.595Z,92
2022-11-23T01:08:21.023Z,92
2022-11-23T01:09:20.578Z,92
2022-11-23T01:10:20.353Z,92
2022-11-23T01:11:20.791Z,92
2022-11-23T01:12:21.074Z,92
2022-11-23T01:13:19.820Z,92
2022-11-23T01:14:20.207Z,92
2022-11-23T01:15:19.182Z,92
2022-11-23T01:16:28.398Z,92
2022-11-23T01:17:20.782Z,92
2022-11-23T01:18:20.838Z,92
2022-11-23T01:19:20.087Z,92
2022-11-23T01:20:20.555Z,92
2022-11-23T01:21:21.026Z,92
2022-11-23T01:22:20.442Z,92
2022-11-23T01:23:20.731Z,92
2022-11-23T01:24:20.108Z,92
2022-11-23T01:25:20.599Z,92
2022-11-23T01:26:20.994Z,92
2022-11-23T01:27:19.738Z,92
2022-11-23T01:28:20.985Z,92
2022-11-23T01:29:20.403Z,92
2022-11-23T01:30:20.395Z,92
2022-11-23T01:31:19.967Z,92
2022-11-23T01:32:20.373Z,92
2022-11-23T01:33:19.998Z,92
2022-11-23T01:34:20.151Z,92
2022-11-23T01:35:20.540Z,92
2022-11-23T01:36:21.058Z,92
2022-11-23T01:37:20.380Z,92
2022-11-23T01:38:24.448Z,92
2022-11-23T01:39:20.306Z,92
2022-11-23T01:40:21.124Z,92
2022-11-23T01:41:20.351Z,92
2022-11-23T01:42:24.250Z,92
2022-11-23T01:43:20.592Z,92
2022-11-23T01:44:21.110Z,92
2022-11-23T01:45:20.379Z,92
2022-11-23T01:46:20.481Z,92
2022-11-23T01:48:20.647Z,92
2022-11-23T01:49:20.663Z,92
2022-11-23T01:50:20.621Z,92
2022-11-23T01:51:20.615Z,92
2022-11-23T01:52:19.584Z,92
2022-11-23T01:53:20.284Z,92
2022-11-23T01:54:20.741Z,92
2022-11-23T01:55:20.656Z,92
2022-11-23T01:56:20.906Z,92
2022-11-23T01:59:20.963Z,92
2022-11-23T02:00:20.355Z,92
2022-11-23T02:01:20.883Z,92
2022-11-23T02:03:20.607Z,92
2022-11-23T02:04:20.948Z,92
2022-11-23T02:05:20.303Z,92
2022-11-23T02:06:20.798Z,92
2022-11-23T02:07:20.536Z,92
2022-11-23T02:08:20.642Z,92
2022-11-23T02:09:20.430Z,92
2022-11-23T02:10:20.792Z,92
2022-11-23T02:11:20.357Z,92
2022-11-23T02:12:20.612Z,92
2022-11-23T02:13:20.960Z,92
2022-11-23T02:14:25.595Z,92
2022-11-23T02:15:19.578Z,92
2022-11-23T02:16:19.618Z,92
2022-11-23T02:17:19.316Z,92
2022-11-23T02:19:20.737Z,92
2022-11-23T02:20:20.692Z,92
2022-11-23T02:21:21.066Z,92
2022-11-23T02:22:20.496Z,92
2022-11-23T02:23:21.025Z,92
2022-11-23T02:24:20.397Z,92
2022-11-23T02:25:20.764Z,92
2022-11-23T02:26:20.246Z,92
2022-11-23T02:27:20.769Z,92
2022-11-23T02:28:20.148Z,92
2022-11-23T02:29:20.536Z,92
2022-11-23T02:30:20.708Z,92
2022-11-23T02:31:20.596Z,92
2022-11-23T02:32:21.043Z,92
2022-11-23T02:33:20.388Z,92
2022-11-23T02:34:19.437Z,92
2022-11-23T02:35:20.169Z,92
2022-11-23T02:36:20.573Z,92
2022-11-23T02:37:20.500Z,92
2022-11-23T02:38:20.899Z,92
2022-11-23T02:39:19.369Z,92
2022-11-23T02:40:20.771Z,92
2022-11-23T02:41:20.328Z,92
2022-11-23T02:42:20.116Z,92
2022-11-23T02:43:20.903Z,92
2022-11-23T02:44:20.293Z,92
2022-11-23T02:45:20.355Z,92
2022-11-23T02:46:20.269Z,92
2022-11-23T02:49:20.401Z,92
2022-11-23T02:50:20.669Z,92
2022-11-23T02:51:21.054Z,92
2022-11-23T02:52:20.459Z,92
2022-11-23T02:53:20.831Z,92
2022-11-23T02:54:20.805Z,92
2022-11-23T02:55:20.300Z,92
2022-11-23T02:56:20.621Z,92
2022-11-23T02:57:20.899Z,92
2022-11-23T02:58:20.864Z,92
2022-11-23T03:00:21.101Z,92
2022-11-23T03:01:20.259Z,92
2022-11-23T03:02:19.555Z,92
2022-11-23T03:04:27.737Z,92
2022-11-23T03:05:20.994Z,92
2022-11-23T03:06:20.846Z,92
2022-11-23T03:08:20.708Z,92
2022-11-23T03:09:21.059Z,92
2022-11-23T03:10:20.407Z,92
2022-11-23T03:11:21.131Z,92
2022-11-23T03:12:20.501Z,92
2022-11-23T03:13:20.790Z,92
2022-11-23T03:14:20.805Z,92
2022-11-23T03:15:20.278Z,92
2022-11-23T03:16:20.916Z,92
2022-11-23T03:17:20.386Z,92
2022-11-23T03:18:20.784Z,92
2022-11-23T03:19:21.109Z,92
2022-11-23T03:20:19.596Z,92
2022-11-23T03:21:19.661Z,92
2022-11-23T03:22:20.333Z,92
2022-11-23T03:23:20.740Z,92
2022-11-23T03:24:19.885Z,92
2022-11-23T03:25:20.182Z,92
2022-11-23T03:26:20.939Z,92
2022-11-23T03:27:20.360Z,92
2022-11-23T03:28:20.737Z,92
2022-11-23T03:31:20.784Z,92
2022-11-23T03:32:21.136Z,92
2022-11-23T03:33:20.490Z,92
2022-11-23T03:34:20.749Z,92
2022-11-23T03:35:20.577Z,92
2022-11-23T03:36:21.161Z,92
2022-11-23T03:37:20.394Z,92
2022-11-23T03:38:21.025Z,92
2022-11-23T03:39:20.442Z,92
2022-11-23T03:40:20.292Z,92
2022-11-23T03:41:20.623Z,92
2022-11-23T03:42:21.159Z,92
2022-11-23T03:43:20.431Z,92
2022-11-23T03:44:21.305Z,92
2022-11-23T03:45:20.834Z,92
2022-11-23T03:47:21.052Z,92
2022-11-23T03:48:20.488Z,92
2022-11-23T03:49:20.853Z,92
2022-11-23T03:50:20.157Z,92
2022-11-23T03:51:20.475Z,92
2022-11-23T03:52:20.949Z,92
2022-11-23T03:53:20.279Z,92
2022-11-23T03:54:20.739Z,92
2022-11-23T03:55:21.063Z,92
2022-11-23T03:56:20.486Z,92
2022-11-23T03:57:20.898Z,92
2022-11-23T03:58:20.247Z,92
2022-11-23T03:59:20.438Z,92
2022-11-23T04:00:20.835Z,92
2022-11-23T04:01:21.005Z,92
2022-11-23T04:02:20.825Z,92
2022-11-23T04:03:20.297Z,92
2022-11-23T04:04:20.758Z,92
2022-11-23T04:05:21.027Z,92
2022-11-23T04:06:20.447Z,92
2022-11-23T04:07:21.029Z,92
2022-11-23T04:08:20.550Z,92
2022-11-23T04:09:20.889Z,92
2022-11-23T04:10:20.979Z,92
2022-11-23T04:13:21.005Z,92
2022-11-23T04:14:20.457Z,92
2022-11-23T04:15:20.777Z,92
2022-11-23T04:16:20.837Z,92
2022-11-23T04:17:20.153Z,92
2022-11-23T04:18:20.581Z,92
2022-11-23T04:19:20.725Z,92
2022-11-23T04:20:20.142Z,92
2022-11-23T04:23:20.720Z,92
2022-11-23T04:24:20.718Z,92
2022-11-23T04:25:21.131Z,92
2022-11-23T04:26:20.327Z,92
2022-11-23T04:27:20.871Z,92
2022-11-23T04:28:20.963Z,92
2022-11-23T04:29:20.497Z,92
2022-11-23T04:30:20.679Z,92
2022-11-23T04:31:20.665Z,92
2022-11-23T04:32:20.701Z,92
2022-11-23T04:33:20.125Z,92
2022-11-23T04:34:20.256Z,92
2022-11-23T04:35:20.676Z,92
2022-11-23T04:36:20.445Z,92
2022-11-23T04:37:20.758Z,92
2022-11-23T04:38:21.129Z,92
2022-11-23T04:40:21.614Z,92
2022-11-23T04:41:20.377Z,92
2022-11-23T04:42:20.727Z,92
2022-11-23T04:43:20.064Z,92
2022-11-23T04:44:20.581Z,92
2022-11-23T04:45:20.866Z,92
2022-11-23T04:46:20.223Z,92
2022-11-23T04:47:19.575Z,92
2022-11-23T04:49:20.849Z,92
2022-11-23T04:50:19.454Z,92
2022-11-23T04:51:21.069Z,92
2022-11-23T04:52:20.896Z,92
2022-11-23T04:53:20.836Z,92
2022-11-23T04:54:20.398Z,92
2022-11-23T04:55:20.885Z,92
2022-11-23T04:56:20.914Z,92
2022-11-23T04:59:20.917Z,92
2022-11-23T05:00:21.200Z,92
2022-11-23T05:01:20.816Z,92
2022-11-23T05:02:20.920Z,92
2022-11-23T05:04:24.159Z,92
2022-11-23T05:05:20.803Z,92
2022-11-23T05:06:21.091Z,92
2022-11-23T05:07:20.827Z,92
2022-11-23T05:08:21.012Z,92
2022-11-23T05:09:20.303Z,92
2022-11-23T05:10:20.360Z,92
2022-11-23T05:11:19.760Z,92
2022-11-23T05:12:19.758Z,92
2022-11-23T05:13:21.012Z,92
2022-11-23T05:14:20.419Z,92
2022-11-23T05:15:20.594Z,92
2022-11-23T05:16:20.805Z,92
2022-11-23T05:17:20.493Z,92
2022-11-23T05:18:20.836Z,92
2022-11-23T05:19:20.334Z,92
2022-11-23T05:20:20.195Z,92
2022-11-23T05:21:20.513Z,92
2022-11-23T05:22:21.061Z,92
2022-11-23T05:23:20.505Z,92
2022-11-23T05:24:20.989Z,92
2022-11-23T05:25:20.446Z,92
2022-11-23T05:26:20.661Z,92
2022-11-23T05:27:20.924Z,92
2022-11-23T05:28:45.937Z,93
2022-11-23T05:29:20.870Z,93
2022-11-23T05:30:20.262Z,93
2022-11-23T05:31:21.180Z,93
2022-11-23T05:32:20.604Z,93
2022-11-23T05:33:21.007Z,93
2022-11-23T05:34:20.249Z,93
2022-11-23T05:35:20.539Z,93
2022-11-23T05:36:20.710Z,93
2022-11-23T05:37:21.170Z,93
2022-11-23T05:38:20.673Z,93
2022-11-23T05:39:19.758Z,93
2022-11-23T05:40:21.008Z,93
2022-11-23T05:41:21.204Z,93
2022-11-23T05:42:21.122Z,93
2022-11-23T05:43:20.439Z,93
2022-11-23T05:44:20.452Z,93
2022-11-23T05:45:20.337Z,93
2022-11-23T05:46:20.860Z,93
2022-11-23T05:47:20.193Z,93
2022-11-23T05:48:20.435Z,93
2022-11-23T05:49:20.820Z,93
2022-11-23T05:50:20.357Z,93
2022-11-23T05:53:20.864Z,93
2022-11-23T05:54:20.443Z,93
2022-11-23T05:55:20.838Z,93
2022-11-23T05:56:20.224Z,93
2022-11-23T05:57:20.528Z,93
2022-11-23T05:58:21.025Z,93
2022-11-23T05:59:20.291Z,93
2022-11-23T06:00:20.735Z,93
2022-11-23T06:01:20.594Z,93
2022-11-23T06:02:20.634Z,93
2022-11-23T06:03:19.589Z,93
2022-11-23T06:04:20.680Z,93
2022-11-23T06:05:19.215Z,93
2022-11-23T06:06:20.997Z,93
2022-11-23T06:10:20.532Z,93
2022-11-23T06:11:20.624Z,93
2022-11-23T06:12:20.846Z,93
2022-11-23T06:13:20.476Z,93
2022-11-23T06:14:20.975Z,93
2022-11-23T06:15:20.871Z,93
2022-11-23T06:16:20.990Z,93
2022-11-23T06:17:20.719Z,93
2022-11-23T06:19:20.949Z,93
2022-11-23T06:20:20.413Z,93
2022-11-23T06:21:20.686Z,93
2022-11-23T06:22:21.093Z,93
2022-11-23T06:24:20.939Z,93
2022-11-23T06:25:20.347Z,93
2022-11-23T06:26:20.708Z,93
2022-11-23T06:27:24.406Z,93
2022-11-23T06:28:20.982Z,93
2022-11-23T06:29:20.711Z,93
2022-11-23T06:31:21.071Z,93
2022-11-23T06:35:20.988Z,93
2022-11-23T06:36:20.541Z,93
2022-11-23T06:37:21.114Z,93
2022-11-23T06:38:20.518Z,93
2022-11-23T06:39:20.982Z,93
2022-11-23T06:40:20.521Z,93
2022-11-23T06:41:20.636Z,93
2022-11-23T06:44:21.046Z,93
2022-11-23T06:45:20.394Z,93
2022-11-23T06:46:20.267Z,93
2022-11-23T06:47:29.850Z,93
2022-11-23T06:48:20.574Z,93
2022-11-23T06:49:20.896Z,93
2022-11-23T06:50:20.138Z,93
2022-11-23T06:51:20.701Z,93
2022-11-23T06:52:21.029Z,93
2022-11-23T06:53:19.285Z,93
2022-11-23T06:54:22.223Z,93
2022-11-23T06:56:21.096Z,93
2022-11-23T06:57:21.058Z,93
2022-11-23T06:58:20.348Z,93
2022-11-23T06:59:20.795Z,93
2022-11-23T07:00:21.361Z,93
2022-11-23T07:01:20.656Z,93
2022-11-23T07:02:20.980Z,93
2022-11-23T07:03:20.577Z,93
2022-11-23T07:04:20.595Z,93
2022-11-23T07:06:21.174Z,93
2022-11-23T07:07:21.211Z,93
2022-11-23T07:08:20.436Z,93
2022-11-23T07:09:20.744Z,93
2022-11-23T07:10:21.075Z,93
2022-11-23T07:11:20.445Z,93
2022-11-23T07:12:21.240Z,93
2022-11-23T07:13:20.576Z,93
2022-11-23T07:14:20.498Z,93
2022-11-23T07:15:20.665Z,93
2022-11-23T07:17:23.826Z,93
2022-11-23T07:18:20.382Z,93
2022-11-23T07:20:20.705Z,93
2022-11-23T07:21:20.726Z,93
2022-11-23T07:22:21.107Z,93
2022-11-23T07:23:20.657Z,93
2022-11-23T07:24:21.082Z,93
2022-11-23T07:25:20.951Z,93
2022-11-23T07:26:20.289Z,93
2022-11-23T07:27:20.629Z,93
2022-11-23T07:28:21.066Z,93
2022-11-23T07:29:20.402Z,93
2022-11-23T07:32:20.350Z,93
2022-11-23T07:33:20.631Z,93
2022-11-23T07:34:20.912Z,93
2022-11-23T07:35:20.265Z,93
2022-11-23T07:36:20.589Z,93
2022-11-23T07:39:25.411Z,93
2022-11-23T07:40:20.774Z,93
2022-11-23T07:41:20.664Z,93
2022-11-23T07:42:47.523Z,93
2022-11-23T07:43:20.961Z,93
2022-11-23T07:44:20.353Z,93
2022-11-23T07:45:20.944Z,93
2022-11-23T07:46:21.082Z,93
2022-11-23T07:47:20.350Z,93
2022-11-23T07:48:20.753Z,93
2022-11-23T07:49:20.661Z,93
2022-11-23T07:50:21.104Z,93
2022-11-23T07:51:20.354Z,93
2022-11-23T07:52:20.854Z,93
2022-11-23T07:53:20.175Z,93
2022-11-23T07:54:27.594Z,93
2022-11-23T07:57:20.279Z,93
2022-11-23T07:58:19.713Z,93
2022-11-23T07:59:20.146Z,93
2022-11-23T08:00:20.755Z,93
2022-11-23T08:01:20.747Z,93
2022-11-23T08:02:21.144Z,93
2022-11-23T08:03:37.595Z,92
2022-11-23T08:04:20.278Z,93
2022-11-23T08:05:20.933Z,92
2022-11-23T08:06:20.404Z,92
2022-11-23T08:07:21.197Z,92
2022-11-23T08:08:20.959Z,93
2022-11-23T08:09:20.993Z,92
2022-11-23T08:10:20.203Z,92
2022-11-23T08:11:20.585Z,93
2022-11-23T08:12:21.032Z,93
2022-11-23T08:13:20.220Z,92
2022-11-23T08:14:20.559Z,92
2022-11-23T08:15:21.015Z,92
2022-11-23T08:16:21.117Z,92
2022-11-23T08:17:20.530Z,92
2022-11-23T08:18:20.729Z,92
2022-11-23T08:19:21.231Z,92
2022-11-23T08:20:20.256Z,92
2022-11-23T08:21:20.239Z,92
2022-11-23T08:22:22.223Z,92
2022-11-23T08:23:21.076Z,92
2022-11-23T08:24:20.469Z,92
2022-11-23T08:25:19.402Z,92
2022-11-23T08:26:20.792Z,92
2022-11-23T08:27:20.532Z,92
2022-11-23T08:28:20.334Z,92
2022-11-23T08:31:20.989Z,93
2022-11-23T08:32:21.150Z,93
2022-11-23T08:33:20.511Z,93
2022-11-23T08:34:20.340Z,93
2022-11-23T08:37:20.428Z,92
2022-11-23T08:38:20.789Z,92
2022-11-23T08:39:21.137Z,92
2022-11-23T08:41:21.080Z,92
2022-11-23T08:42:20.522Z,92
2022-11-23T08:43:20.885Z,92
2022-11-23T08:44:20.322Z,92
2022-11-23T08:45:20.667Z,92
2022-11-23T08:46:20.769Z,92
2022-11-23T08:47:21.046Z,92
2022-11-23T08:48:20.457Z,91
2022-11-23T08:49:20.801Z,91
2022-11-23T08:50:21.109Z,91
2022-11-23T08:51:20.575Z,91
2022-11-23T08:52:20.788Z,91
2022-11-23T08:53:19.916Z,91
2022-11-23T08:54:20.891Z,91
2022-11-23T08:55:21.264Z,91
2022-11-23T08:56:20.425Z,91
2022-11-23T08:57:20.727Z,91
2022-11-23T08:58:20.634Z,91
2022-11-23T08:59:20.565Z,91
2022-11-23T09:00:20.600Z,91
2022-11-23T09:01:21.476Z,91
2022-11-23T09:02:20.452Z,91
2022-11-23T09:03:20.617Z,91
2022-11-23T09:04:26.743Z,91
2022-11-23T09:05:20.969Z,91
2022-11-23T09:06:20.271Z,91
2022-11-23T09:07:21.167Z,91
2022-11-23T09:08:21.269Z,91
2022-11-23T09:09:21.277Z,91
2022-11-23T09:10:25.046Z,90
2022-11-23T09:11:20.376Z,90
2022-11-23T09:12:20.790Z,90
2022-11-23T09:13:21.017Z,90
2022-11-23T09:14:20.402Z,90
2022-11-23T09:15:20.563Z,90
2022-11-23T09:16:19.778Z,90
2022-11-23T09:17:20.843Z,90
2022-11-23T09:18:19.660Z,90
2022-11-23T09:19:20.735Z,91
2022-11-23T09:20:21.127Z,91
2022-11-23T09:21:20.735Z,91
2022-11-23T09:22:21.059Z,91
2022-11-23T09:23:20.917Z,90
2022-11-23T09:24:21.436Z,90
2022-11-23T09:25:20.750Z,90
2022-11-23T09:26:20.299Z,90
2022-11-23T09:27:20.990Z,90
2022-11-23T09:28:20.375Z,90
2022-11-23T09:29:20.829Z,90
2022-11-23T09:30:21.147Z,90
2022-11-23T09:31:20.779Z,90
2022-11-23T09:32:21.186Z,90
2022-11-23T09:33:20.749Z,89
2022-11-23T09:34:21.175Z,89
2022-11-23T09:35:20.262Z,89
2022-11-23T09:36:20.501Z,89
2022-11-23T09:37:20.439Z,89
2022-11-23T09:38:23.031Z,89
2022-11-23T09:39:20.373Z,88
2022-11-23T09:41:20.810Z,88
2022-11-23T09:42:20.939Z,88
2022-11-23T09:43:20.551Z,88
2022-11-23T09:44:21.029Z,88
2022-11-23T09:45:20.610Z,88
2022-11-23T09:47:21.090Z,88
2022-11-23T09:48:20.362Z,88
2022-11-23T09:49:19.649Z,88
2022-11-23T09:50:20.957Z,88
2022-11-23T09:51:21.233Z,87
2022-11-23T09:52:20.483Z,87
2022-11-23T09:53:20.592Z,87
2022-11-23T09:54:21.055Z,87
2022-11-23T09:55:20.696Z,87
2022-11-23T09:56:21.207Z,86
2022-11-23T09:57:21.210Z,86
2022-11-23T09:58:20.586Z,86
2022-11-23T09:59:20.529Z,86
2022-11-23T10:00:21.202Z,86
2022-11-23T10:01:21.124Z,86
2022-11-23T10:02:20.782Z,86
2022-11-23T10:04:21.201Z,85
2022-11-23T10:05:20.496Z,85
2022-11-23T10:07:21.009Z,85
2022-11-23T10:08:20.991Z,85
2022-11-23T10:09:20.516Z,85
2022-11-23T10:10:20.637Z,84
2022-11-23T10:11:20.948Z,84
2022-11-23T10:12:20.362Z,84
2022-11-23T10:13:20.621Z,84
2022-11-23T10:14:20.970Z,84
2022-11-23T10:15:20.281Z,84
2022-11-23T10:16:20.735Z,84
2022-11-23T10:17:21.220Z,84
2022-11-23T10:18:20.600Z,84
2022-11-23T10:19:20.991Z,84
2022-11-23T10:20:20.490Z,84
2022-11-23T10:21:20.712Z,84
2022-11-23T10:22:20.576Z,84
2022-11-23T10:23:20.761Z,83
2022-11-23T10:24:20.842Z,83
2022-11-23T10:27:20.386Z,83
2022-11-23T10:28:20.523Z,83
2022-11-23T10:29:20.970Z,82
2022-11-23T10:30:20.642Z,82
2022-11-23T10:31:21.057Z,82
2022-11-23T10:32:20.576Z,82
2022-11-23T10:33:20.093Z,82
2022-11-23T10:34:20.382Z,82
2022-11-23T10:35:20.368Z,82
2022-11-23T10:36:19.659Z,81
2022-11-23T10:38:24.938Z,81
2022-11-23T10:39:20.606Z,81
2022-11-23T10:40:20.436Z,81
2022-11-23T10:41:20.760Z,81
2022-11-23T10:42:21.232Z,81
2022-11-23T10:43:20.484Z,81
2022-11-23T10:44:21.063Z,81
2022-11-23T10:45:20.450Z,81
2022-11-23T10:46:20.481Z,81
2022-11-23T10:47:20.609Z,81
2022-11-23T10:48:20.998Z,81
2022-11-23T10:49:20.322Z,81
2022-11-23T10:50:20.726Z,81
2022-11-23T10:51:21.098Z,81
2022-11-23T10:52:20.803Z,81
2022-11-23T10:53:20.960Z,81
2022-11-23T10:54:20.340Z,81
2022-11-23T10:55:20.381Z,81
2022-11-23T10:56:20.808Z,81
2022-11-23T10:57:20.891Z,81
2022-11-23T10:58:20.309Z,81
2022-11-23T10:59:20.353Z,81
2022-11-23T11:00:21.534Z,81
2022-11-23T11:01:20.821Z,81
2022-11-23T11:02:19.969Z,81
2022-11-23T11:03:20.264Z,81
2022-11-23T11:04:20.367Z,81
2022-11-23T11:05:20.457Z,81
2022-11-23T11:06:20.823Z,81
2022-11-23T11:07:21.338Z,81
2022-11-23T11:08:20.562Z,81
2022-11-23T11:09:19.971Z,81
2022-11-23T11:10:20.269Z,81
2022-11-23T11:12:21.155Z,81
2022-11-23T11:13:20.628Z,81
2022-11-23T11:16:20.619Z,81
2022-11-23T11:17:20.999Z,81
2022-11-23T11:18:21.173Z,81
2022-11-23T11:19:20.644Z,81
2022-11-23T11:20:20.673Z,81
2022-11-23T11:21:20.936Z,81
2022-11-23T11:22:20.321Z,81
2022-11-23T11:23:19.452Z,81
2022-11-23T11:24:21.253Z,81
2022-11-23T11:25:20.497Z,81
2022-11-23T11:26:20.567Z,81
2022-11-23T11:27:20.978Z,81
2022-11-23T11:28:20.863Z,81
2022-11-23T11:29:19.800Z,81
2022-11-23T11:30:20.184Z,81
2022-11-23T11:31:20.589Z,81
2022-11-23T11:32:20.728Z,81
2022-11-23T11:33:20.174Z,81
2022-11-23T11:34:19.739Z,81
2022-11-23T11:35:26.832Z,81
2022-11-23T11:36:20.905Z,81
2022-11-23T11:37:20.390Z,81
2022-11-23T11:38:20.465Z,81
2022-11-23T11:39:25.384Z,81
2022-11-23T11:40:20.633Z,81
2022-11-23T11:41:20.943Z,81
2022-11-23T11:42:21.007Z,81
2022-11-23T11:43:22.832Z,81
2022-11-23T11:44:20.815Z,81
2022-11-23T11:45:21.249Z,80
2022-11-23T11:46:35.935Z,80
2022-11-23T11:47:20.978Z,80
2022-11-23T11:48:21.321Z,80
2022-11-23T11:49:20.675Z,80
2022-11-23T11:50:21.223Z,80
2022-11-23T11:51:20.710Z,80
2022-11-23T11:53:20.477Z,79
2022-11-23T11:54:20.685Z,79
2022-11-23T11:55:21.054Z,79
2022-11-23T11:56:20.765Z,79
2022-11-23T11:57:20.509Z,79
2022-11-23T11:58:20.664Z,78
2022-11-23T11:59:21.221Z,78
2022-11-23T12:01:20.416Z,78
2022-11-23T12:02:21.342Z,78
2022-11-23T12:04:20.912Z,78
2022-11-23T12:05:21.147Z,78
2022-11-23T12:06:27.229Z,78
2022-11-23T12:07:21.407Z,78
2022-11-23T12:08:20.605Z,77
2022-11-23T12:09:21.215Z,77
2022-11-23T12:10:20.720Z,77
2022-11-23T12:11:21.065Z,77
2022-11-23T12:12:22.789Z,77
2022-11-23T12:13:20.542Z,77
2022-11-23T12:14:21.200Z,77
2022-11-23T12:15:54.895Z,78
2022-11-23T12:16:19.448Z,78
2022-11-23T12:17:38.975Z,77
2022-11-23T12:19:21.107Z,76
2022-11-23T12:21:20.957Z,76
2022-11-23T12:22:21.252Z,76
2022-11-23T12:23:20.412Z,76
2022-11-23T12:25:20.559Z,76
2022-11-23T12:26:19.839Z,76
2022-11-23T12:28:20.856Z,76
2022-11-23T12:29:21.254Z,76
2022-11-23T12:30:20.633Z,76
2022-11-23T12:31:20.379Z,76
2022-11-23T12:32:20.615Z,76
2022-11-23T12:33:20.997Z,76
2022-11-23T12:34:21.142Z,76
2022-11-23T12:37:21.078Z,76
2022-11-23T12:38:21.111Z,75
2022-11-23T12:39:20.341Z,75
2022-11-23T12:40:20.780Z,75
2022-11-23T12:41:21.122Z,75
2022-11-23T12:42:21.143Z,75
2022-11-23T12:43:20.590Z,75
2022-11-23T12:44:20.438Z,75
2022-11-23T12:45:20.915Z,75
2022-11-23T12:46:19.873Z,75
2022-11-23T12:47:19.757Z,75
2022-11-23T12:48:20.912Z,75
2022-11-23T12:49:20.457Z,75
2022-11-23T12:50:20.929Z,75
2022-11-23T12:51:20.862Z,76
2022-11-23T12:52:20.314Z,76
2022-11-23T12:53:21.111Z,76
2022-11-23T12:54:20.995Z,76
2022-11-23T12:55:25.870Z,76
2022-11-23T12:56:20.504Z,76
2022-11-23T12:57:21.002Z,76
2022-11-23T12:58:20.814Z,76
2022-11-23T12:59:21.275Z,76
2022-11-23T13:00:21.168Z,76
2022-11-23T13:02:21.309Z,76
2022-11-23T13:03:20.547Z,76
2022-11-23T13:04:21.139Z,76
2022-11-23T13:05:20.448Z,76
2022-11-23T13:06:20.591Z,76
2022-11-23T13:07:52.105Z,76
2022-11-23T13:08:20.869Z,76
2022-11-23T13:09:19.958Z,76
2022-11-23T13:11:20.414Z,76
2022-11-23T13:12:20.844Z,76
2022-11-23T13:13:22.496Z,76
2022-11-23T13:14:21.068Z,76
2022-11-23T13:15:20.587Z,76
2022-11-23T13:16:21.761Z,76
2022-11-23T13:17:20.729Z,76
2022-11-23T13:18:20.781Z,76
2022-11-23T13:19:20.669Z,76
2022-11-23T13:20:21.101Z,76
2022-11-23T13:21:20.548Z,76
2022-11-23T13:22:20.878Z,75
2022-11-23T13:23:21.239Z,76
2022-11-23T13:24:20.524Z,76
2022-11-23T13:25:21.377Z,76
2022-11-23T13:26:20.395Z,76
2022-11-23T13:27:20.716Z,76
2022-11-23T13:28:19.981Z,76
2022-11-23T13:29:20.400Z,76
2022-11-23T13:30:20.573Z,76
2022-11-23T13:31:22.243Z,76
2022-11-23T13:32:21.178Z,76
2022-11-23T13:33:29.505Z,76
2022-11-23T13:34:20.801Z,76
2022-11-23T13:35:20.909Z,76
2022-11-23T13:37:15.073Z,77
2022-11-23T13:37:21.121Z,77
2022-11-23T13:38:20.297Z,77
2022-11-23T13:39:20.502Z,77
2022-11-23T13:40:20.959Z,77
2022-11-23T13:41:20.415Z,77
2022-11-23T13:42:20.927Z,77
2022-11-23T13:43:20.686Z,77
2022-11-23T13:44:20.985Z,77
2022-11-23T13:46:21.606Z,77
2022-11-23T13:47:19.832Z,77
2022-11-23T13:49:00.889Z,77
2022-11-23T13:49:19.884Z,77
2022-11-23T13:50:19.961Z,77
2022-11-23T13:51:19.824Z,77
2022-11-23T13:52:20.833Z,77
2022-11-23T13:53:20.584Z,77
2022-11-23T13:54:20.685Z,77
2022-11-23T13:55:20.661Z,77
2022-11-23T13:57:21.354Z,77
2022-11-23T13:58:20.723Z,77
2022-11-23T13:59:21.239Z,77
2022-11-23T14:00:20.590Z,77
2022-11-23T14:01:21.018Z,77
2022-11-23T14:02:21.427Z,77
2022-11-23T14:03:21.212Z,77
2022-11-23T14:04:20.498Z,77
2022-11-23T14:05:20.798Z,77
2022-11-23T14:06:21.454Z,77
2022-11-23T14:07:20.929Z,77
2022-11-23T14:08:21.107Z,77
2022-11-23T14:09:20.612Z,77
2022-11-23T14:10:20.312Z,78
2022-11-23T14:11:20.468Z,78
2022-11-23T14:13:21.173Z,78
2022-11-23T14:14:20.560Z,78
2022-11-23T14:15:20.657Z,78
2022-11-23T14:16:20.735Z,78
2022-11-23T14:17:21.160Z,78
2022-11-23T14:18:20.333Z,78
2022-11-23T14:19:20.773Z,78
2022-11-23T14:20:20.802Z,78
2022-11-23T14:21:21.056Z,78
2022-11-23T14:22:20.420Z,78
2022-11-23T14:23:20.584Z,78
2022-11-23T14:24:22.243Z,78
2022-11-23T14:25:21.202Z,78
2022-11-23T14:26:20.777Z,78
2022-11-23T14:27:52.763Z,78
2022-11-23T14:29:21.170Z,78
2022-11-23T14:30:20.452Z,78
2022-11-23T14:31:21.174Z,78
2022-11-23T14:32:20.627Z,78
2022-11-23T14:33:20.635Z,78
2022-11-23T14:34:19.961Z,78
2022-11-23T14:35:20.437Z,79
2022-11-23T14:36:20.770Z,79
2022-11-23T14:37:20.174Z,79
2022-11-23T14:38:21.128Z,79
2022-11-23T14:39:21.149Z,79
2022-11-23T14:40:19.377Z,79
2022-11-23T14:41:20.594Z,79
2022-11-23T14:42:20.986Z,79
2022-11-23T14:43:20.359Z,79
2022-11-23T14:44:20.379Z,79
2022-11-23T14:45:20.878Z,79
2022-11-23T14:46:21.755Z,79
2022-11-23T14:47:21.708Z,79
2022-11-23T14:48:20.831Z,79
2022-11-23T14:49:20.752Z,79
2022-11-23T14:50:21.308Z,79
2022-11-23T14:51:20.594Z,79
2022-11-23T14:52:21.017Z,79
2022-11-23T14:53:20.562Z,79
2022-11-23T14:54:20.944Z,79
2022-11-23T14:55:20.507Z,79
2022-11-23T14:58:20.986Z,80
2022-11-23T14:59:20.429Z,80
2022-11-23T15:00:20.831Z,80
2022-11-23T15:01:20.738Z,80
2022-11-23T15:02:20.724Z,80
2022-11-23T15:03:55.633Z,79
2022-11-23T15:04:21.796Z,80
2022-11-23T15:05:20.991Z,79
2022-11-23T15:06:19.936Z,79
2022-11-23T15:07:21.456Z,80
2022-11-23T15:08:20.757Z,80
2022-11-23T15:09:21.125Z,80
2022-11-23T15:10:20.595Z,80
2022-11-23T15:11:21.008Z,80
2022-11-23T15:12:20.782Z,80
2022-11-23T15:13:21.229Z,80
2022-11-23T15:14:20.415Z,80
2022-11-23T15:15:20.927Z,80
2022-11-23T15:16:20.901Z,81
2022-11-23T15:17:20.912Z,81
2022-11-23T15:18:21.168Z,81
2022-11-23T15:21:28.107Z,81
2022-11-23T15:22:20.599Z,81
2022-11-23T15:23:19.507Z,81
2022-11-23T15:24:19.711Z,81
2022-11-23T15:25:20.544Z,81
2022-11-23T15:26:53.388Z,81
2022-11-23T15:28:20.719Z,81
2022-11-23T15:29:21.061Z,81
2022-11-23T15:30:20.825Z,81
2022-11-23T15:31:24.137Z,81
2022-11-23T15:32:39.092Z,81
2022-11-23T15:33:21.082Z,81
2022-11-23T15:34:20.402Z,81
2022-11-23T15:35:20.573Z,81
2022-11-23T15:36:19.910Z,82
2022-11-23T15:37:20.533Z,82
2022-11-23T15:38:28.401Z,82
2022-11-23T15:39:20.711Z,82
2022-11-23T15:41:21.146Z,82
2022-11-23T15:42:20.546Z,82
2022-11-23T15:43:20.660Z,82
2022-11-23T15:44:21.115Z,82